sensor_id;sensor_type;location;lat;lon;timestamp;P1;durP1;ratioP1;P2;durP2;ratioP2
48823;SDS011;34640;53.590;10.054;2022-12-07T00:00:05;18.00;;;11.10;;
48823;SDS011;34640;53.590;10.054;2022-12-07T00:02:39;22.00;;;12.52;;
48823;SDS011;34640;53.590;10.054;2022-12-07T00:05:15;22.52;;;11.95;;
48823;SDS011;34640;53.590;10.054;2022-12-07T00:07:48;23.85;;;12.85;;
48823;SDS011;34640;53.590;10.054;2022-12-07T00:10:22;20.85;;;11.45;;
48823;SDS011;34640;53.590;10.054;2022-12-07T00:12:56;22.50;;;12.55;;
48823;SDS011;34640;53.590;10.054;2022-12-07T00:15:30;21.58;;;12.10;;
48823;SDS011;34640;53.590;10.054;2022-12-07T00:18:03;19.67;;;11.57;;
48823;SDS011;34640;53.590;10.054;2022-12-07T00:20:39;23.10;;;11.80;;
48823;SDS011;34640;53.590;10.054;2022-12-07T00:23:12;22.92;;;12.57;;
48823;SDS011;34640;53.590;10.054;2022-12-07T00:25:46;19.45;;;11.95;;
48823;SDS011;34640;53.590;10.054;2022-12-07T00:28:21;19.27;;;11.57;;
48823;SDS011;34640;53.590;10.054;2022-12-07T00:30:59;21.73;;;12.18;;
48823;SDS011;34640;53.590;10.054;2022-12-07T00:33:33;26.42;;;12.20;;
48823;SDS011;34640;53.590;10.054;2022-12-07T00:36:10;21.30;;;11.75;;
48823;SDS011;34640;53.590;10.054;2022-12-07T00:38:46;20.23;;;11.57;;
48823;SDS011;34640;53.590;10.054;2022-12-07T00:41:21;21.27;;;12.02;;
48823;SDS011;34640;53.590;10.054;2022-12-07T00:43:56;20.52;;;11.77;;
48823;SDS011;34640;53.590;10.054;2022-12-07T00:46:30;21.15;;;11.00;;
48823;SDS011;34640;53.590;10.054;2022-12-07T00:49:04;22.48;;;12.10;;
48823;SDS011;34640;53.590;10.054;2022-12-07T00:51:39;20.70;;;11.38;;
48823;SDS011;34640;53.590;10.054;2022-12-07T00:54:13;23.60;;;12.75;;
48823;SDS011;34640;53.590;10.054;2022-12-07T00:56:47;21.33;;;11.88;;
48823;SDS011;34640;53.590;10.054;2022-12-07T00:59:20;20.42;;;11.05;;
48823;SDS011;34640;53.590;10.054;2022-12-07T01:01:54;18.95;;;10.55;;
48823;SDS011;34640;53.590;10.054;2022-12-07T01:04:28;19.55;;;11.38;;
48823;SDS011;34640;53.590;10.054;2022-12-07T01:07:03;18.15;;;10.55;;
48823;SDS011;34640;53.590;10.054;2022-12-07T01:09:37;22.55;;;10.55;;
48823;SDS011;34640;53.590;10.054;2022-12-07T01:12:10;18.77;;;10.07;;
48823;SDS011;34640;53.590;10.054;2022-12-07T01:14:44;21.33;;;9.32;;
48823;SDS011;34640;53.590;10.054;2022-12-07T01:17:18;16.27;;;9.10;;
48823;SDS011;34640;53.590;10.054;2022-12-07T01:19:51;17.63;;;9.13;;
48823;SDS011;34640;53.590;10.054;2022-12-07T01:22:27;18.30;;;9.18;;
48823;SDS011;34640;53.590;10.054;2022-12-07T01:25:01;19.15;;;9.27;;
48823;SDS011;34640;53.590;10.054;2022-12-07T01:27:35;15.48;;;8.98;;
48823;SDS011;34640;53.590;10.054;2022-12-07T01:30:09;15.98;;;9.35;;
48823;SDS011;34640;53.590;10.054;2022-12-07T01:32:44;20.48;;;8.68;;
48823;SDS011;34640;53.590;10.054;2022-12-07T01:35:19;18.85;;;8.70;;
48823;SDS011;34640;53.590;10.054;2022-12-07T01:37:54;19.00;;;9.05;;
48823;SDS011;34640;53.590;10.054;2022-12-07T01:40:27;18.67;;;9.05;;
48823;SDS011;34640;53.590;10.054;2022-12-07T01:43:01;18.50;;;10.45;;
48823;SDS011;34640;53.590;10.054;2022-12-07T01:45:39;20.00;;;8.75;;
48823;SDS011;34640;53.590;10.054;2022-12-07T01:48:14;15.80;;;8.98;;
48823;SDS011;34640;53.590;10.054;2022-12-07T01:50:51;19.60;;;8.70;;
48823;SDS011;34640;53.590;10.054;2022-12-07T01:53:29;17.50;;;8.55;;
48823;SDS011;34640;53.590;10.054;2022-12-07T01:56:03;18.05;;;9.07;;
48823;SDS011;34640;53.590;10.054;2022-12-07T01:58:40;18.50;;;8.75;;
48823;SDS011;34640;53.590;10.054;2022-12-07T02:01:14;21.25;;;8.23;;
48823;SDS011;34640;53.590;10.054;2022-12-07T02:03:48;14.23;;;8.00;;
48823;SDS011;34640;53.590;10.054;2022-12-07T02:06:23;15.85;;;8.85;;
48823;SDS011;34640;53.590;10.054;2022-12-07T02:09:00;16.85;;;7.95;;
48823;SDS011;34640;53.590;10.054;2022-12-07T02:11:34;19.42;;;8.93;;
48823;SDS011;34640;53.590;10.054;2022-12-07T02:14:07;23.30;;;8.90;;
48823;SDS011;34640;53.590;10.054;2022-12-07T02:16:44;17.50;;;7.82;;
48823;SDS011;34640;53.590;10.054;2022-12-07T02:19:41;14.20;;;6.90;;
48823;SDS011;34640;53.590;10.054;2022-12-07T02:26:07;14.38;;;6.22;;
48823;SDS011;34640;53.590;10.054;2022-12-07T02:29:08;14.68;;;7.25;;
48823;SDS011;34640;53.590;10.054;2022-12-07T02:31:46;13.05;;;6.53;;
48823;SDS011;34640;53.590;10.054;2022-12-07T02:34:32;13.80;;;5.40;;
48823;SDS011;34640;53.590;10.054;2022-12-07T02:37:16;11.57;;;5.15;;
48823;SDS011;34640;53.590;10.054;2022-12-07T02:39:57;13.48;;;5.95;;
48823;SDS011;34640;53.590;10.054;2022-12-07T02:42:36;13.93;;;5.50;;
48823;SDS011;34640;53.590;10.054;2022-12-07T02:45:15;11.57;;;5.30;;
48823;SDS011;34640;53.590;10.054;2022-12-07T02:47:53;10.70;;;4.72;;
48823;SDS011;34640;53.590;10.054;2022-12-07T02:50:32;10.65;;;4.47;;
48823;SDS011;34640;53.590;10.054;2022-12-07T02:53:05;9.40;;;4.00;;
48823;SDS011;34640;53.590;10.054;2022-12-07T02:55:59;12.50;;;4.03;;
48823;SDS011;34640;53.590;10.054;2022-12-07T02:58:42;8.75;;;3.85;;
48823;SDS011;34640;53.590;10.054;2022-12-07T03:01:30;12.63;;;3.60;;
48823;SDS011;34640;53.590;10.054;2022-12-07T03:04:13;12.40;;;3.85;;
48823;SDS011;34640;53.590;10.054;2022-12-07T03:07:00;9.25;;;3.40;;
48823;SDS011;34640;53.590;10.054;2022-12-07T03:09:44;9.70;;;3.50;;
48823;SDS011;34640;53.590;10.054;2022-12-07T03:12:25;9.15;;;3.88;;
48823;SDS011;34640;53.590;10.054;2022-12-07T03:15:05;6.68;;;2.72;;
48823;SDS011;34640;53.590;10.054;2022-12-07T03:17:44;8.52;;;2.90;;
48823;SDS011;34640;53.590;10.054;2022-12-07T03:20:21;6.95;;;3.13;;
48823;SDS011;34640;53.590;10.054;2022-12-07T03:22:57;13.18;;;2.97;;
48823;SDS011;34640;53.590;10.054;2022-12-07T03:25:32;7.43;;;2.70;;
48823;SDS011;34640;53.590;10.054;2022-12-07T03:28:08;7.95;;;2.40;;
48823;SDS011;34640;53.590;10.054;2022-12-07T03:30:46;11.75;;;2.25;;
48823;SDS011;34640;53.590;10.054;2022-12-07T03:33:24;14.48;;;6.90;;
48823;SDS011;34640;53.590;10.054;2022-12-07T03:36:03;4.68;;;1.80;;
48823;SDS011;34640;53.590;10.054;2022-12-07T03:38:42;6.43;;;2.58;;
48823;SDS011;34640;53.590;10.054;2022-12-07T03:41:22;6.72;;;1.73;;
48823;SDS011;34640;53.590;10.054;2022-12-07T03:43:58;2.63;;;1.50;;
48823;SDS011;34640;53.590;10.054;2022-12-07T03:46:35;4.70;;;1.58;;
48823;SDS011;34640;53.590;10.054;2022-12-07T03:49:18;6.50;;;1.38;;
48823;SDS011;34640;53.590;10.054;2022-12-07T03:51:59;2.28;;;1.42;;
48823;SDS011;34640;53.590;10.054;2022-12-07T03:54:39;3.30;;;1.40;;
48823;SDS011;34640;53.590;10.054;2022-12-07T03:57:18;5.13;;;1.45;;
48823;SDS011;34640;53.590;10.054;2022-12-07T03:59:55;4.28;;;1.30;;
48823;SDS011;34640;53.590;10.054;2022-12-07T04:02:30;6.50;;;1.40;;
48823;SDS011;34640;53.590;10.054;2022-12-07T04:05:08;3.72;;;1.13;;
48823;SDS011;34640;53.590;10.054;2022-12-07T04:07:42;4.15;;;1.17;;
48823;SDS011;34640;53.590;10.054;2022-12-07T04:10:16;3.90;;;1.10;;
48823;SDS011;34640;53.590;10.054;2022-12-07T04:12:50;3.53;;;1.33;;
48823;SDS011;34640;53.590;10.054;2022-12-07T04:15:24;5.72;;;1.77;;
48823;SDS011;34640;53.590;10.054;2022-12-07T04:17:57;3.22;;;1.33;;
48823;SDS011;34640;53.590;10.054;2022-12-07T04:20:32;4.55;;;1.48;;
48823;SDS011;34640;53.590;10.054;2022-12-07T04:23:06;11.82;;;2.45;;
48823;SDS011;34640;53.590;10.054;2022-12-07T04:25:40;4.68;;;1.50;;
48823;SDS011;34640;53.590;10.054;2022-12-07T04:28:14;4.15;;;1.55;;
48823;SDS011;34640;53.590;10.054;2022-12-07T04:30:47;4.93;;;1.58;;
48823;SDS011;34640;53.590;10.054;2022-12-07T04:33:21;5.80;;;2.38;;
48823;SDS011;34640;53.590;10.054;2022-12-07T04:35:56;3.90;;;1.35;;
48823;SDS011;34640;53.590;10.054;2022-12-07T04:38:30;5.05;;;1.40;;
48823;SDS011;34640;53.590;10.054;2022-12-07T04:41:04;4.82;;;1.42;;
48823;SDS011;34640;53.590;10.054;2022-12-07T04:43:39;8.02;;;1.90;;
48823;SDS011;34640;53.590;10.054;2022-12-07T04:46:12;4.57;;;1.70;;
48823;SDS011;34640;53.590;10.054;2022-12-07T04:48:46;3.92;;;2.00;;
48823;SDS011;34640;53.590;10.054;2022-12-07T04:51:22;3.90;;;1.80;;
48823;SDS011;34640;53.590;10.054;2022-12-07T04:53:57;6.05;;;1.80;;
48823;SDS011;34640;53.590;10.054;2022-12-07T04:56:31;6.53;;;1.73;;
48823;SDS011;34640;53.590;10.054;2022-12-07T04:59:07;6.15;;;2.00;;
48823;SDS011;34640;53.590;10.054;2022-12-07T05:01:42;4.68;;;2.30;;
48823;SDS011;34640;53.590;10.054;2022-12-07T05:04:16;5.75;;;2.28;;
48823;SDS011;34640;53.590;10.054;2022-12-07T05:06:52;3.75;;;1.50;;
48823;SDS011;34640;53.590;10.054;2022-12-07T05:09:25;7.15;;;2.30;;
48823;SDS011;34640;53.590;10.054;2022-12-07T05:11:59;5.68;;;2.67;;
48823;SDS011;34640;53.590;10.054;2022-12-07T05:14:33;7.13;;;2.83;;
48823;SDS011;34640;53.590;10.054;2022-12-07T05:17:07;7.78;;;2.42;;
48823;SDS011;34640;53.590;10.054;2022-12-07T05:19:41;6.35;;;1.88;;
48823;SDS011;34640;53.590;10.054;2022-12-07T05:22:16;7.25;;;2.58;;
48823;SDS011;34640;53.590;10.054;2022-12-07T05:24:50;5.88;;;2.53;;
48823;SDS011;34640;53.590;10.054;2022-12-07T05:27:23;7.13;;;2.30;;
48823;SDS011;34640;53.590;10.054;2022-12-07T05:29:57;7.45;;;2.70;;
48823;SDS011;34640;53.590;10.054;2022-12-07T05:32:31;5.38;;;2.10;;
48823;SDS011;34640;53.590;10.054;2022-12-07T05:35:06;4.50;;;2.20;;
48823;SDS011;34640;53.590;10.054;2022-12-07T05:37:41;6.82;;;2.35;;
48823;SDS011;34640;53.590;10.054;2022-12-07T05:40:16;8.48;;;2.85;;
48823;SDS011;34640;53.590;10.054;2022-12-07T05:42:50;6.75;;;2.40;;
48823;SDS011;34640;53.590;10.054;2022-12-07T05:45:23;5.18;;;2.40;;
48823;SDS011;34640;53.590;10.054;2022-12-07T05:47:57;6.40;;;3.13;;
48823;SDS011;34640;53.590;10.054;2022-12-07T05:50:31;5.85;;;2.25;;
48823;SDS011;34640;53.590;10.054;2022-12-07T05:53:06;5.82;;;2.55;;
48823;SDS011;34640;53.590;10.054;2022-12-07T05:55:40;8.48;;;2.50;;
48823;SDS011;34640;53.590;10.054;2022-12-07T05:58:13;6.13;;;2.70;;
48823;SDS011;34640;53.590;10.054;2022-12-07T06:01:05;6.30;;;2.92;;
48823;SDS011;34640;53.590;10.054;2022-12-07T06:03:38;6.00;;;2.92;;
48823;SDS011;34640;53.590;10.054;2022-12-07T06:06:12;7.97;;;3.10;;
48823;SDS011;34640;53.590;10.054;2022-12-07T06:08:47;10.98;;;4.05;;
48823;SDS011;34640;53.590;10.054;2022-12-07T06:11:21;8.07;;;3.15;;
48823;SDS011;34640;53.590;10.054;2022-12-07T06:14:12;7.32;;;3.08;;
48823;SDS011;34640;53.590;10.054;2022-12-07T06:16:46;9.27;;;3.08;;
48823;SDS011;34640;53.590;10.054;2022-12-07T06:19:19;7.15;;;2.67;;
48823;SDS011;34640;53.590;10.054;2022-12-07T06:21:53;6.22;;;2.72;;
48823;SDS011;34640;53.590;10.054;2022-12-07T06:24:29;9.23;;;2.63;;
48823;SDS011;34640;53.590;10.054;2022-12-07T06:27:03;7.57;;;2.80;;
48823;SDS011;34640;53.590;10.054;2022-12-07T06:29:37;7.32;;;2.65;;
48823;SDS011;34640;53.590;10.054;2022-12-07T06:32:11;7.30;;;2.47;;
48823;SDS011;34640;53.590;10.054;2022-12-07T06:34:44;10.52;;;3.22;;
48823;SDS011;34640;53.590;10.054;2022-12-07T06:37:19;7.47;;;2.85;;
48823;SDS011;34640;53.590;10.054;2022-12-07T06:39:55;6.07;;;2.60;;
48823;SDS011;34640;53.590;10.054;2022-12-07T06:42:29;6.20;;;2.50;;
48823;SDS011;34640;53.590;10.054;2022-12-07T06:45:03;4.72;;;2.22;;
48823;SDS011;34640;53.590;10.054;2022-12-07T06:47:38;5.90;;;2.28;;
48823;SDS011;34640;53.590;10.054;2022-12-07T06:50:13;9.85;;;2.65;;
48823;SDS011;34640;53.590;10.054;2022-12-07T06:52:47;5.90;;;2.55;;
48823;SDS011;34640;53.590;10.054;2022-12-07T06:55:22;7.97;;;2.70;;
48823;SDS011;34640;53.590;10.054;2022-12-07T06:57:56;6.88;;;2.75;;
48823;SDS011;34640;53.590;10.054;2022-12-07T07:00:30;6.97;;;2.33;;
48823;SDS011;34640;53.590;10.054;2022-12-07T07:03:04;6.15;;;2.47;;
48823;SDS011;34640;53.590;10.054;2022-12-07T07:05:38;5.40;;;2.40;;
48823;SDS011;34640;53.590;10.054;2022-12-07T07:08:11;11.00;;;2.45;;
48823;SDS011;34640;53.590;10.054;2022-12-07T07:10:55;5.32;;;2.40;;
48823;SDS011;34640;53.590;10.054;2022-12-07T07:13:29;9.73;;;2.42;;
48823;SDS011;34640;53.590;10.054;2022-12-07T07:16:03;13.02;;;2.20;;
48823;SDS011;34640;53.590;10.054;2022-12-07T07:18:38;5.10;;;2.10;;
48823;SDS011;34640;53.590;10.054;2022-12-07T07:21:11;9.40;;;2.67;;
48823;SDS011;34640;53.590;10.054;2022-12-07T07:23:45;9.38;;;1.73;;
48823;SDS011;34640;53.590;10.054;2022-12-07T07:26:20;5.65;;;2.25;;
48823;SDS011;34640;53.590;10.054;2022-12-07T07:28:54;6.55;;;1.92;;
48823;SDS011;34640;53.590;10.054;2022-12-07T07:31:28;4.63;;;1.63;;
48823;SDS011;34640;53.590;10.054;2022-12-07T07:34:02;6.30;;;1.77;;
48823;SDS011;34640;53.590;10.054;2022-12-07T07:36:36;7.80;;;2.53;;
48823;SDS011;34640;53.590;10.054;2022-12-07T07:39:10;10.35;;;1.77;;
48823;SDS011;34640;53.590;10.054;2022-12-07T07:41:46;5.53;;;1.73;;
48823;SDS011;34640;53.590;10.054;2022-12-07T07:44:20;5.55;;;1.98;;
48823;SDS011;34640;53.590;10.054;2022-12-07T07:46:54;4.32;;;1.48;;
48823;SDS011;34640;53.590;10.054;2022-12-07T07:49:28;7.03;;;1.70;;
48823;SDS011;34640;53.590;10.054;2022-12-07T07:52:01;6.57;;;1.58;;
48823;SDS011;34640;53.590;10.054;2022-12-07T07:54:35;7.82;;;1.90;;
48823;SDS011;34640;53.590;10.054;2022-12-07T07:57:10;6.40;;;1.63;;
48823;SDS011;34640;53.590;10.054;2022-12-07T07:59:44;6.43;;;2.20;;
48823;SDS011;34640;53.590;10.054;2022-12-07T08:02:18;9.45;;;1.60;;
48823;SDS011;34640;53.590;10.054;2022-12-07T08:04:54;12.25;;;2.65;;
48823;SDS011;34640;53.590;10.054;2022-12-07T08:07:27;13.45;;;1.45;;
48823;SDS011;34640;53.590;10.054;2022-12-07T08:10:02;7.40;;;1.23;;
48823;SDS011;34640;53.590;10.054;2022-12-07T08:12:38;5.40;;;1.15;;
48823;SDS011;34640;53.590;10.054;2022-12-07T08:15:33;6.20;;;1.00;;
48823;SDS011;34640;53.590;10.054;2022-12-07T08:18:06;4.38;;;1.00;;
48823;SDS011;34640;53.590;10.054;2022-12-07T08:20:41;5.50;;;1.40;;
48823;SDS011;34640;53.590;10.054;2022-12-07T08:23:15;2.88;;;1.08;;
48823;SDS011;34640;53.590;10.054;2022-12-07T08:25:49;6.70;;;1.08;;
48823;SDS011;34640;53.590;10.054;2022-12-07T08:28:24;8.10;;;0.95;;
48823;SDS011;34640;53.590;10.054;2022-12-07T08:30:58;7.47;;;1.20;;
48823;SDS011;34640;53.590;10.054;2022-12-07T08:33:33;5.38;;;1.23;;
48823;SDS011;34640;53.590;10.054;2022-12-07T08:36:08;5.13;;;1.10;;
48823;SDS011;34640;53.590;10.054;2022-12-07T08:38:43;9.48;;;1.20;;
48823;SDS011;34640;53.590;10.054;2022-12-07T08:41:37;9.05;;;1.77;;
48823;SDS011;34640;53.590;10.054;2022-12-07T08:44:12;6.18;;;1.20;;
48823;SDS011;34640;53.590;10.054;2022-12-07T08:46:46;5.30;;;1.13;;
48823;SDS011;34640;53.590;10.054;2022-12-07T08:49:22;18.10;;;1.85;;
48823;SDS011;34640;53.590;10.054;2022-12-07T08:52:00;5.30;;;1.20;;
48823;SDS011;34640;53.590;10.054;2022-12-07T08:54:37;6.50;;;1.38;;
48823;SDS011;34640;53.590;10.054;2022-12-07T08:57:13;10.27;;;1.48;;
48823;SDS011;34640;53.590;10.054;2022-12-07T08:59:48;11.38;;;1.67;;
48823;SDS011;34640;53.590;10.054;2022-12-07T09:02:21;7.70;;;1.40;;
48823;SDS011;34640;53.590;10.054;2022-12-07T09:04:55;8.15;;;1.60;;
48823;SDS011;34640;53.590;10.054;2022-12-07T09:07:29;5.25;;;1.15;;
48823;SDS011;34640;53.590;10.054;2022-12-07T09:10:05;8.98;;;1.80;;
48823;SDS011;34640;53.590;10.054;2022-12-07T09:12:40;8.88;;;1.83;;
48823;SDS011;34640;53.590;10.054;2022-12-07T09:15:15;7.13;;;1.17;;
48823;SDS011;34640;53.590;10.054;2022-12-07T09:17:49;6.72;;;1.10;;
48823;SDS011;34640;53.590;10.054;2022-12-07T09:20:22;10.82;;;1.20;;
48823;SDS011;34640;53.590;10.054;2022-12-07T09:22:59;13.45;;;1.63;;
48823;SDS011;34640;53.590;10.054;2022-12-07T09:25:33;9.95;;;2.08;;
48823;SDS011;34640;53.590;10.054;2022-12-07T09:28:07;5.40;;;1.33;;
48823;SDS011;34640;53.590;10.054;2022-12-07T09:30:46;6.35;;;0.90;;
48823;SDS011;34640;53.590;10.054;2022-12-07T09:33:40;7.63;;;1.05;;
48823;SDS011;34640;53.590;10.054;2022-12-07T09:36:14;9.20;;;1.35;;
48823;SDS011;34640;53.590;10.054;2022-12-07T09:38:47;6.60;;;1.17;;
48823;SDS011;34640;53.590;10.054;2022-12-07T09:41:21;11.85;;;1.60;;
48823;SDS011;34640;53.590;10.054;2022-12-07T09:43:58;11.27;;;1.48;;
48823;SDS011;34640;53.590;10.054;2022-12-07T09:46:39;10.13;;;1.63;;
48823;SDS011;34640;53.590;10.054;2022-12-07T09:49:16;10.63;;;1.55;;
48823;SDS011;34640;53.590;10.054;2022-12-07T09:51:59;8.23;;;1.25;;
48823;SDS011;34640;53.590;10.054;2022-12-07T09:54:35;10.00;;;1.33;;
48823;SDS011;34640;53.590;10.054;2022-12-07T09:57:13;11.90;;;1.60;;
48823;SDS011;34640;53.590;10.054;2022-12-07T09:59:47;11.57;;;2.13;;
48823;SDS011;34640;53.590;10.054;2022-12-07T10:02:28;6.00;;;1.30;;
48823;SDS011;34640;53.590;10.054;2022-12-07T10:05:11;8.13;;;1.50;;
48823;SDS011;34640;53.590;10.054;2022-12-07T10:07:55;8.38;;;1.63;;
48823;SDS011;34640;53.590;10.054;2022-12-07T10:10:29;11.23;;;1.45;;
48823;SDS011;34640;53.590;10.054;2022-12-07T10:13:10;12.50;;;1.52;;
48823;SDS011;34640;53.590;10.054;2022-12-07T10:15:46;7.38;;;1.38;;
48823;SDS011;34640;53.590;10.054;2022-12-07T10:21:24;7.00;;;1.58;;
48823;SDS011;34640;53.590;10.054;2022-12-07T10:24:00;4.75;;;1.10;;
48823;SDS011;34640;53.590;10.054;2022-12-07T10:26:36;10.07;;;1.17;;
48823;SDS011;34640;53.590;10.054;2022-12-07T10:29:14;4.25;;;1.48;;
48823;SDS011;34640;53.590;10.054;2022-12-07T10:31:52;15.15;;;1.42;;
48823;SDS011;34640;53.590;10.054;2022-12-07T10:34:29;3.67;;;1.20;;
48823;SDS011;34640;53.590;10.054;2022-12-07T10:37:15;14.00;;;2.05;;
48823;SDS011;34640;53.590;10.054;2022-12-07T10:39:50;9.65;;;1.48;;
48823;SDS011;34640;53.590;10.054;2022-12-07T10:42:26;7.47;;;1.50;;
48823;SDS011;34640;53.590;10.054;2022-12-07T10:45:08;8.27;;;1.50;;
48823;SDS011;34640;53.590;10.054;2022-12-07T10:47:48;8.85;;;1.13;;
48823;SDS011;34640;53.590;10.054;2022-12-07T10:50:29;10.48;;;1.20;;
48823;SDS011;34640;53.590;10.054;2022-12-07T10:53:25;6.65;;;1.20;;
48823;SDS011;34640;53.590;10.054;2022-12-07T10:56:21;16.60;;;2.42;;
48823;SDS011;34640;53.590;10.054;2022-12-07T10:59:24;7.50;;;1.23;;
48823;SDS011;34640;53.590;10.054;2022-12-07T11:02:17;8.63;;;1.33;;
48823;SDS011;34640;53.590;10.054;2022-12-07T11:05:01;8.98;;;1.67;;
48823;SDS011;34640;53.590;10.054;2022-12-07T11:07:46;11.85;;;1.88;;
48823;SDS011;34640;53.590;10.054;2022-12-07T11:10:31;12.15;;;1.90;;
48823;SDS011;34640;53.590;10.054;2022-12-07T11:13:16;9.88;;;1.90;;
48823;SDS011;34640;53.590;10.054;2022-12-07T11:16:06;12.20;;;1.90;;
48823;SDS011;34640;53.590;10.054;2022-12-07T11:18:52;9.55;;;1.80;;
48823;SDS011;34640;53.590;10.054;2022-12-07T11:21:39;8.88;;;1.40;;
48823;SDS011;34640;53.590;10.054;2022-12-07T11:24:23;10.23;;;1.15;;
48823;SDS011;34640;53.590;10.054;2022-12-07T11:27:07;7.35;;;0.93;;
48823;SDS011;34640;53.590;10.054;2022-12-07T11:29:55;11.93;;;1.10;;
48823;SDS011;34640;53.590;10.054;2022-12-07T11:32:49;7.20;;;0.98;;
48823;SDS011;34640;53.590;10.054;2022-12-07T11:35:34;7.50;;;1.13;;
48823;SDS011;34640;53.590;10.054;2022-12-07T11:38:15;5.53;;;1.00;;
48823;SDS011;34640;53.590;10.054;2022-12-07T11:40:58;10.23;;;1.25;;
48823;SDS011;34640;53.590;10.054;2022-12-07T11:43:52;7.72;;;1.92;;
48823;SDS011;34640;53.590;10.054;2022-12-07T11:46:29;7.82;;;1.50;;
48823;SDS011;34640;53.590;10.054;2022-12-07T11:49:19;8.70;;;2.00;;
48823;SDS011;34640;53.590;10.054;2022-12-07T11:51:58;11.73;;;3.10;;
48823;SDS011;34640;53.590;10.054;2022-12-07T11:54:39;12.75;;;2.65;;
48823;SDS011;34640;53.590;10.054;2022-12-07T11:57:17;11.98;;;2.53;;
48823;SDS011;34640;53.590;10.054;2022-12-07T12:05:13;14.85;;;3.45;;
48823;SDS011;34640;53.590;10.054;2022-12-07T12:07:50;17.00;;;3.65;;
48823;SDS011;34640;53.590;10.054;2022-12-07T12:10:54;10.43;;;2.05;;
48823;SDS011;34640;53.590;10.054;2022-12-07T12:17:19;11.70;;;1.88;;
48823;SDS011;34640;53.590;10.054;2022-12-07T12:20:07;7.93;;;1.33;;
48823;SDS011;34640;53.590;10.054;2022-12-07T12:22:53;13.35;;;1.50;;
48823;SDS011;34640;53.590;10.054;2022-12-07T12:28:18;10.07;;;1.38;;
48823;SDS011;34640;53.590;10.054;2022-12-07T12:31:09;11.77;;;1.60;;
48823;SDS011;34640;53.590;10.054;2022-12-07T12:33:48;8.57;;;2.03;;
48823;SDS011;34640;53.590;10.054;2022-12-07T12:36:23;11.43;;;1.23;;
48823;SDS011;34640;53.590;10.054;2022-12-07T12:39:10;11.15;;;1.55;;
48823;SDS011;34640;53.590;10.054;2022-12-07T12:41:59;10.77;;;1.80;;
48823;SDS011;34640;53.590;10.054;2022-12-07T12:44:40;12.80;;;1.38;;
48823;SDS011;34640;53.590;10.054;2022-12-07T12:50:33;12.98;;;1.42;;
48823;SDS011;34640;53.590;10.054;2022-12-07T12:53:15;16.42;;;2.63;;
48823;SDS011;34640;53.590;10.054;2022-12-07T12:56:17;8.32;;;1.50;;
48823;SDS011;34640;53.590;10.054;2022-12-07T12:59:18;8.73;;;1.08;;
48823;SDS011;34640;53.590;10.054;2022-12-07T13:02:07;14.30;;;1.48;;
48823;SDS011;34640;53.590;10.054;2022-12-07T13:04:51;7.57;;;1.30;;
48823;SDS011;34640;53.590;10.054;2022-12-07T13:10:27;8.70;;;1.77;;
48823;SDS011;34640;53.590;10.054;2022-12-07T13:22:39;6.15;;;1.05;;
48823;SDS011;34640;53.590;10.054;2022-12-07T13:25:29;10.30;;;1.42;;
48823;SDS011;34640;53.590;10.054;2022-12-07T13:28:09;5.18;;;1.08;;
48823;SDS011;34640;53.590;10.054;2022-12-07T13:30:53;5.28;;;0.70;;
48823;SDS011;34640;53.590;10.054;2022-12-07T13:33:36;12.43;;;1.30;;
48823;SDS011;34640;53.590;10.054;2022-12-07T13:36:12;6.47;;;0.85;;
48823;SDS011;34640;53.590;10.054;2022-12-07T13:38:53;7.78;;;0.80;;
48823;SDS011;34640;53.590;10.054;2022-12-07T13:41:30;3.95;;;0.90;;
48823;SDS011;34640;53.590;10.054;2022-12-07T13:44:07;7.88;;;1.08;;
48823;SDS011;34640;53.590;10.054;2022-12-07T13:46:45;6.97;;;1.08;;
48823;SDS011;34640;53.590;10.054;2022-12-07T13:49:25;7.35;;;0.80;;
48823;SDS011;34640;53.590;10.054;2022-12-07T13:52:13;4.18;;;0.70;;
48823;SDS011;34640;53.590;10.054;2022-12-07T13:54:49;15.10;;;1.10;;
48823;SDS011;34640;53.590;10.054;2022-12-07T13:57:31;9.88;;;0.82;;
48823;SDS011;34640;53.590;10.054;2022-12-07T14:00:13;5.70;;;0.90;;
48823;SDS011;34640;53.590;10.054;2022-12-07T14:02:57;8.35;;;0.85;;
48823;SDS011;34640;53.590;10.054;2022-12-07T14:05:32;7.60;;;1.10;;
48823;SDS011;34640;53.590;10.054;2022-12-07T14:08:21;9.27;;;1.02;;
48823;SDS011;34640;53.590;10.054;2022-12-07T14:10:56;4.60;;;0.80;;
48823;SDS011;34640;53.590;10.054;2022-12-07T14:13:33;5.10;;;0.90;;
48823;SDS011;34640;53.590;10.054;2022-12-07T14:16:17;9.88;;;1.20;;
48823;SDS011;34640;53.590;10.054;2022-12-07T14:18:57;12.77;;;1.73;;
48823;SDS011;34640;53.590;10.054;2022-12-07T14:21:32;7.50;;;1.20;;
48823;SDS011;34640;53.590;10.054;2022-12-07T14:24:08;5.82;;;1.30;;
48823;SDS011;34640;53.590;10.054;2022-12-07T14:26:49;2.45;;;0.80;;
48823;SDS011;34640;53.590;10.054;2022-12-07T14:29:32;3.50;;;0.75;;
48823;SDS011;34640;53.590;10.054;2022-12-07T14:32:15;4.38;;;1.08;;
48823;SDS011;34640;53.590;10.054;2022-12-07T14:34:56;6.00;;;1.85;;
48823;SDS011;34640;53.590;10.054;2022-12-07T14:37:35;9.50;;;1.23;;
48823;SDS011;34640;53.590;10.054;2022-12-07T14:40:11;4.63;;;0.85;;
48823;SDS011;34640;53.590;10.054;2022-12-07T14:42:47;8.23;;;1.33;;
48823;SDS011;34640;53.590;10.054;2022-12-07T14:45:25;10.02;;;1.10;;
48823;SDS011;34640;53.590;10.054;2022-12-07T14:47:58;2.40;;;0.88;;
48823;SDS011;34640;53.590;10.054;2022-12-07T14:50:52;3.78;;;0.80;;
48823;SDS011;34640;53.590;10.054;2022-12-07T14:53:48;8.48;;;1.42;;
48823;SDS011;34640;53.590;10.054;2022-12-07T14:56:28;9.85;;;1.30;;
48823;SDS011;34640;53.590;10.054;2022-12-07T14:59:02;7.35;;;0.98;;
48823;SDS011;34640;53.590;10.054;2022-12-07T15:01:37;9.25;;;1.20;;
48823;SDS011;34640;53.590;10.054;2022-12-07T15:04:11;11.15;;;0.88;;
48823;SDS011;34640;53.590;10.054;2022-12-07T15:06:54;6.95;;;1.10;;
48823;SDS011;34640;53.590;10.054;2022-12-07T15:09:28;5.97;;;1.30;;
48823;SDS011;34640;53.590;10.054;2022-12-07T15:12:02;13.68;;;1.40;;
48823;SDS011;34640;53.590;10.054;2022-12-07T15:14:36;5.32;;;1.10;;
48823;SDS011;34640;53.590;10.054;2022-12-07T15:17:11;6.35;;;1.10;;
48823;SDS011;34640;53.590;10.054;2022-12-07T15:19:59;8.63;;;1.30;;
48823;SDS011;34640;53.590;10.054;2022-12-07T15:22:33;3.38;;;0.70;;
48823;SDS011;34640;53.590;10.054;2022-12-07T15:25:12;9.18;;;1.00;;
48823;SDS011;34640;53.590;10.054;2022-12-07T15:27:46;7.60;;;0.95;;
48823;SDS011;34640;53.590;10.054;2022-12-07T15:30:20;5.30;;;0.98;;
48823;SDS011;34640;53.590;10.054;2022-12-07T15:32:55;8.68;;;0.90;;
48823;SDS011;34640;53.590;10.054;2022-12-07T15:35:28;9.32;;;2.63;;
48823;SDS011;34640;53.590;10.054;2022-12-07T15:38:02;5.45;;;1.73;;
48823;SDS011;34640;53.590;10.054;2022-12-07T15:40:35;2.45;;;0.95;;
48823;SDS011;34640;53.590;10.054;2022-12-07T15:43:09;5.38;;;1.00;;
48823;SDS011;34640;53.590;10.054;2022-12-07T15:46:03;4.30;;;0.80;;
48823;SDS011;34640;53.590;10.054;2022-12-07T15:48:38;4.72;;;1.10;;
48823;SDS011;34640;53.590;10.054;2022-12-07T15:51:11;7.72;;;1.13;;
48823;SDS011;34640;53.590;10.054;2022-12-07T15:53:45;5.25;;;1.33;;
48823;SDS011;34640;53.590;10.054;2022-12-07T15:56:19;9.25;;;1.00;;
48823;SDS011;34640;53.590;10.054;2022-12-07T15:58:53;6.35;;;1.33;;
48823;SDS011;34640;53.590;10.054;2022-12-07T16:01:26;5.45;;;0.93;;
48823;SDS011;34640;53.590;10.054;2022-12-07T16:04:02;5.53;;;1.20;;